createdAt,value
2022-09-06T00:00:19.603Z,3.70
2022-09-06T00:02:46.318Z,4.15
2022-09-06T00:05:13.233Z,4.15
2022-09-06T00:07:42.870Z,3.63
2022-09-06T00:10:10.318Z,3.78
2022-09-06T00:12:38.138Z,3.63
2022-09-06T00:15:09.988Z,4.05
2022-09-06T00:17:39.076Z,4.05
2022-09-06T00:20:09.181Z,3.63
2022-09-06T00:22:36.819Z,3.55
2022-09-06T00:25:07.145Z,3.87
2022-09-06T00:27:34.683Z,3.65
2022-09-06T00:30:04.689Z,3.75
2022-09-06T00:32:34.935Z,4.00
2022-09-06T00:35:01.474Z,3.90
2022-09-06T00:37:30.286Z,3.93
2022-09-06T00:39:57.002Z,3.92
2022-09-06T00:42:23.588Z,14.15
2022-09-06T00:44:52.928Z,39.67
2022-09-06T00:47:19.718Z,95.10
2022-09-06T00:49:50.778Z,74.37
2022-09-06T00:52:21.206Z,55.53
2022-09-06T00:54:50.813Z,43.30
2022-09-06T00:57:18.538Z,21.33
2022-09-06T00:59:48.791Z,11.18
2022-09-06T01:02:17.681Z,8.27
2022-09-06T01:04:49.481Z,10.45
2022-09-06T01:07:28.174Z,10.82
2022-09-06T01:10:03.932Z,8.93
2022-09-06T01:13:00.717Z,6.25
2022-09-06T01:16:03.393Z,5.37
2022-09-06T01:19:08.235Z,4.68
2022-09-06T01:22:18.923Z,5.47
2022-09-06T01:25:19.190Z,5.05
2022-09-06T01:28:06.930Z,4.32
2022-09-06T01:30:36.745Z,4.63
2022-09-06T01:33:26.004Z,4.00
2022-09-06T01:36:06.726Z,4.30
2022-09-06T01:38:33.412Z,4.47
2022-09-06T01:41:02.131Z,4.57
2022-09-06T01:43:35.529Z,4.50
2022-09-06T01:46:29.555Z,5.03
2022-09-06T01:49:26.524Z,4.57
2022-09-06T01:52:16.427Z,4.75
2022-09-06T01:55:09.868Z,5.25
2022-09-06T01:57:44.777Z,4.70
2022-09-06T02:00:21.132Z,4.30
2022-09-06T02:03:15.559Z,4.75
2022-09-06T02:06:14.174Z,4.03
2022-09-06T02:08:57.205Z,4.35
2022-09-06T02:11:27.087Z,4.57
2022-09-06T02:14:09.669Z,4.28
2022-09-06T02:16:40.573Z,4.40
2022-09-06T02:19:18.326Z,4.50
2022-09-06T02:21:52.638Z,3.85
2022-09-06T02:24:28.311Z,4.40
2022-09-06T02:26:54.966Z,4.18
2022-09-06T02:29:21.692Z,4.65
2022-09-06T02:31:57.392Z,4.53
2022-09-06T02:34:23.985Z,4.90
2022-09-06T02:36:50.691Z,4.30
2022-09-06T02:39:19.820Z,4.65
2022-09-06T02:41:49.072Z,4.38
2022-09-06T02:44:18.003Z,4.68
2022-09-06T02:46:44.565Z,4.15
2022-09-06T02:49:11.759Z,4.80
2022-09-06T02:51:39.406Z,4.25
2022-09-06T02:54:06.805Z,4.50
2022-09-06T02:56:34.500Z,4.93
2022-09-06T02:59:05.569Z,5.00
2022-09-06T03:01:34.641Z,4.53
2022-09-06T03:04:01.947Z,4.50
2022-09-06T03:06:30.747Z,5.15
2022-09-06T03:08:57.993Z,4.22
2022-09-06T03:11:27.328Z,4.45
2022-09-06T03:13:53.951Z,4.90
2022-09-06T03:16:21.267Z,4.57
2022-09-06T03:18:48.022Z,5.32
2022-09-06T03:21:14.772Z,5.15
2022-09-06T03:23:43.987Z,4.68
2022-09-06T03:26:10.580Z,5.00
2022-09-06T03:28:39.979Z,4.60
2022-09-06T03:31:06.872Z,5.10
2022-09-06T03:33:35.861Z,4.95
2022-09-06T03:36:05.410Z,4.57
2022-09-06T03:38:34.484Z,5.50
2022-09-06T03:41:01.262Z,4.53
2022-09-06T03:43:28.122Z,4.70
2022-09-06T03:45:57.868Z,5.05
2022-09-06T03:48:27.218Z,4.90
2022-09-06T03:50:58.516Z,4.87
2022-09-06T03:53:28.629Z,5.05
2022-09-06T03:55:59.234Z,4.75
2022-09-06T03:58:30.543Z,4.93
2022-09-06T04:01:07.652Z,5.68
2022-09-06T04:03:35.559Z,4.77
2022-09-06T04:06:02.896Z,5.00
2022-09-06T04:08:29.971Z,5.80
2022-09-06T04:10:59.925Z,5.40
2022-09-06T04:13:28.776Z,4.80
2022-09-06T04:15:58.326Z,5.30
2022-09-06T04:18:25.512Z,4.65
2022-09-06T04:20:53.552Z,4.97
2022-09-06T04:23:23.395Z,5.05
2022-09-06T04:25:53.197Z,5.25
2022-09-06T04:28:20.479Z,5.30
2022-09-06T04:31:16.026Z,5.03
2022-09-06T04:33:42.620Z,5.25
2022-09-06T04:36:13.494Z,5.38
2022-09-06T04:38:43.024Z,4.97
2022-09-06T04:41:11.777Z,5.27
2022-09-06T04:43:38.423Z,5.55
2022-09-06T04:46:25.045Z,5.53
2022-09-06T04:48:55.603Z,5.20
2022-09-06T04:51:23.378Z,5.40
2022-09-06T04:53:55.041Z,5.80
2022-09-06T04:56:26.241Z,5.65
2022-09-06T04:58:57.948Z,5.18
2022-09-06T05:01:26.722Z,5.05
2022-09-06T05:03:56.753Z,5.50
2022-09-06T05:06:24.873Z,5.27
2022-09-06T05:08:52.774Z,5.85
2022-09-06T05:11:20.267Z,5.97
2022-09-06T05:13:50.263Z,5.93
2022-09-06T05:16:17.405Z,6.53
2022-09-06T05:18:46.583Z,5.87
2022-09-06T05:21:16.126Z,6.15
2022-09-06T05:23:42.816Z,5.28
2022-09-06T05:26:11.634Z,5.40
2022-09-06T05:28:38.212Z,5.50
2022-09-06T05:31:09.427Z,4.87
2022-09-06T05:33:38.829Z,5.20
2022-09-06T05:36:08.787Z,5.05
2022-09-06T05:38:38.099Z,5.32
2022-09-06T05:41:05.198Z,4.95
2022-09-06T05:43:31.824Z,4.80
2022-09-06T05:46:00.904Z,5.55
2022-09-06T05:48:33.308Z,5.43
2022-09-06T05:51:12.523Z,5.05
2022-09-06T05:53:44.418Z,5.63
2022-09-06T05:56:15.462Z,6.00
2022-09-06T05:58:44.530Z,6.05
2022-09-06T06:01:16.243Z,5.90
2022-09-06T06:03:54.313Z,5.93
2022-09-06T06:06:22.118Z,6.38
2022-09-06T06:08:48.779Z,5.97
2022-09-06T06:11:16.410Z,6.30
2022-09-06T06:13:44.516Z,6.10
2022-09-06T06:16:14.410Z,5.28
2022-09-06T06:18:47.673Z,6.50
2022-09-06T06:21:22.638Z,6.27
2022-09-06T06:23:56.930Z,6.35
2022-09-06T06:26:27.377Z,6.15
2022-09-06T06:28:55.552Z,6.35
2022-09-06T06:31:22.965Z,7.15
2022-09-06T06:33:51.971Z,6.30
2022-09-06T06:36:23.034Z,6.68
2022-09-06T06:38:54.093Z,6.45
2022-09-06T06:41:25.534Z,6.15
2022-09-06T06:43:53.827Z,6.88
2022-09-06T06:46:24.648Z,6.37
2022-09-06T06:48:56.805Z,6.50
2022-09-06T06:51:29.044Z,6.82
2022-09-06T06:54:01.639Z,6.15
2022-09-06T06:56:32.094Z,6.60
2022-09-06T06:59:00.975Z,6.37
2022-09-06T07:01:30.134Z,6.10
2022-09-06T07:03:58.327Z,6.40
2022-09-06T07:09:20.727Z,7.35
2022-09-06T07:11:50.621Z,7.57
2022-09-06T07:14:18.216Z,6.75
2022-09-06T07:16:45.445Z,7.57
2022-09-06T07:22:04.501Z,7.13
2022-09-06T07:24:32.495Z,6.43
2022-09-06T07:29:46.048Z,7.20
2022-09-06T07:32:12.823Z,7.60
2022-09-06T07:34:39.782Z,6.63
2022-09-06T07:37:06.478Z,7.87
2022-09-06T07:39:37.159Z,8.15
2022-09-06T07:42:04.113Z,7.57
2022-09-06T07:44:30.699Z,6.88
2022-09-06T07:55:25.960Z,8.30
2022-09-06T07:57:52.543Z,7.55
2022-09-06T08:00:21.366Z,8.32
2022-09-06T08:02:47.894Z,7.50
2022-09-06T08:10:51.345Z,6.65
2022-09-06T08:13:20.113Z,5.80
2022-09-06T08:15:46.711Z,5.03
2022-09-06T08:18:15.497Z,5.60
2022-09-06T08:20:42.055Z,7.95
2022-09-06T08:23:11.721Z,7.97
2022-09-06T08:25:40.853Z,7.90
2022-09-06T08:28:11.982Z,9.10
2022-09-06T08:30:38.584Z,8.55
2022-09-06T08:33:05.181Z,8.07
2022-09-06T08:35:36.638Z,7.43
2022-09-06T08:38:05.624Z,8.18
2022-09-06T08:40:34.682Z,7.27
2022-09-06T08:43:01.248Z,6.95
2022-09-06T08:45:31.200Z,7.00
2022-09-06T08:47:58.642Z,6.47
2022-09-06T08:50:29.248Z,7.25
2022-09-06T08:53:19.275Z,6.73
2022-09-06T08:56:03.229Z,6.35
2022-09-06T08:58:29.825Z,6.72
2022-09-06T09:01:06.374Z,6.57
2022-09-06T09:03:42.558Z,5.85
2022-09-06T09:06:12.737Z,6.80
2022-09-06T09:08:48.015Z,5.88
2022-09-06T09:11:26.600Z,6.53
2022-09-06T09:14:02.986Z,6.30
2022-09-06T09:16:30.042Z,5.22
2022-09-06T09:19:00.875Z,6.10
2022-09-06T09:21:31.214Z,6.50
2022-09-06T09:24:04.671Z,5.65
2022-09-06T09:26:53.709Z,6.22
2022-09-06T09:29:27.448Z,5.88
2022-09-06T09:31:55.622Z,6.07
2022-09-06T09:34:28.493Z,6.10
2022-09-06T09:37:46.583Z,6.30
2022-09-06T09:40:26.060Z,5.20
2022-09-06T09:42:57.330Z,4.75
2022-09-06T09:45:31.894Z,4.73
2022-09-06T09:48:17.739Z,4.32
2022-09-06T09:50:44.986Z,4.47
2022-09-06T09:53:13.971Z,5.22
2022-09-06T09:55:42.773Z,5.18
2022-09-06T09:58:32.709Z,4.87
2022-09-06T10:01:21.601Z,5.60
2022-09-06T10:09:43.556Z,4.97
2022-09-06T10:12:18.339Z,4.80
2022-09-06T10:14:47.921Z,4.47
2022-09-06T10:17:30.763Z,4.32
2022-09-06T10:20:09.539Z,4.55
2022-09-06T10:22:49.740Z,5.50
2022-09-06T10:25:38.434Z,7.50
2022-09-06T10:28:24.383Z,7.22
2022-09-06T10:30:59.150Z,7.90
2022-09-06T10:33:58.547Z,6.13
2022-09-06T10:36:36.636Z,6.40
2022-09-06T10:39:40.395Z,6.27
2022-09-06T10:42:24.251Z,8.63
2022-09-06T10:45:05.116Z,12.73
2022-09-06T10:47:48.376Z,12.10
2022-09-06T10:50:18.998Z,9.50
2022-09-06T10:52:52.895Z,9.47
2022-09-06T10:55:20.101Z,8.48
2022-09-06T11:00:47.397Z,5.93
2022-09-06T11:04:01.910Z,6.05
2022-09-06T11:06:35.703Z,5.37
2022-09-06T11:09:30.195Z,5.85
2022-09-06T11:12:18.591Z,5.05
2022-09-06T11:14:50.200Z,5.82
2022-09-06T11:17:49.585Z,5.90
2022-09-06T11:20:32.306Z,5.73
2022-09-06T11:26:55.465Z,4.88
2022-09-06T11:30:02.127Z,5.00
2022-09-06T11:35:43.352Z,5.43
2022-09-06T11:38:39.969Z,6.10
2022-09-06T11:41:22.484Z,8.57
2022-09-06T11:43:50.280Z,7.82
2022-09-06T11:46:38.806Z,1.80
2022-09-06T11:49:26.943Z,1.10
2022-09-06T11:51:55.828Z,0.80
2022-09-06T11:54:27.514Z,0.90
2022-09-06T11:57:09.122Z,1.10
2022-09-06T11:59:43.746Z,0.80
2022-09-06T12:02:29.358Z,1.00
2022-09-06T12:05:01.249Z,0.85
2022-09-06T12:07:31.698Z,0.77
2022-09-06T12:10:19.772Z,1.00
2022-09-06T12:12:52.568Z,0.60
2022-09-06T12:15:44.995Z,0.73
2022-09-06T12:18:43.629Z,0.70
2022-09-06T12:21:46.207Z,0.60
2022-09-06T12:24:38.807Z,0.65
2022-09-06T12:27:15.805Z,0.70
2022-09-06T12:30:00.944Z,0.73
2022-09-06T12:32:37.011Z,0.70
2022-09-06T12:38:03.207Z,0.73
2022-09-06T12:40:36.570Z,0.75
2022-09-06T12:43:07.506Z,0.60
2022-09-06T12:45:34.069Z,0.70
2022-09-06T12:48:11.853Z,0.80
2022-09-06T12:50:41.582Z,1.20
2022-09-06T12:53:25.081Z,0.93
2022-09-06T12:56:06.762Z,0.63
2022-09-06T12:58:36.490Z,0.90
2022-09-06T13:01:22.873Z,0.82
2022-09-06T13:03:55.678Z,0.90
2022-09-06T13:06:27.432Z,0.93
2022-09-06T13:08:57.233Z,0.93
2022-09-06T13:11:41.055Z,1.08
2022-09-06T13:14:14.466Z,0.98
2022-09-06T13:16:53.225Z,1.08
2022-09-06T13:19:32.231Z,1.23
2022-09-06T13:22:05.429Z,0.90
2022-09-06T13:24:34.813Z,1.15
2022-09-06T13:27:21.675Z,1.00
2022-09-06T13:29:58.497Z,0.80
2022-09-06T13:32:27.510Z,1.02
2022-09-06T13:34:57.638Z,1.13
2022-09-06T13:37:26.429Z,1.30
2022-09-06T13:39:57.564Z,1.27
2022-09-06T13:42:37.255Z,1.20
2022-09-06T13:45:28.451Z,1.50
2022-09-06T13:48:13.046Z,1.70
2022-09-06T13:50:44.555Z,1.30
2022-09-06T13:53:13.576Z,1.27
2022-09-06T13:55:40.154Z,1.40
2022-09-06T13:58:09.186Z,1.23
2022-09-06T14:00:41.166Z,1.27
2022-09-06T14:03:14.739Z,1.58
2022-09-06T14:05:45.508Z,1.48
2022-09-06T14:08:12.063Z,1.70
2022-09-06T14:10:38.623Z,1.55
2022-09-06T14:13:05.710Z,1.23
2022-09-06T14:15:34.706Z,1.30
2022-09-06T14:18:01.439Z,1.20
2022-09-06T14:20:27.972Z,1.20
2022-09-06T14:22:54.696Z,1.67
2022-09-06T14:25:21.241Z,2.27
2022-09-06T14:27:48.627Z,1.60
2022-09-06T14:30:17.633Z,1.63
2022-09-06T14:32:46.781Z,1.90
2022-09-06T14:35:18.193Z,1.50
2022-09-06T14:37:47.390Z,1.60
2022-09-06T14:40:16.978Z,1.90
2022-09-06T14:42:46.564Z,2.00
2022-09-06T14:45:15.301Z,1.42
2022-09-06T14:47:41.860Z,1.98
2022-09-06T14:50:11.768Z,2.13
2022-09-06T14:52:38.314Z,1.88
2022-09-06T14:55:05.416Z,2.28
2022-09-06T14:57:32.163Z,1.52
2022-09-06T14:59:59.232Z,1.85
2022-09-06T15:02:26.364Z,2.30
2022-09-06T15:04:53.585Z,2.28
2022-09-06T15:07:22.279Z,1.70
2022-09-06T15:09:50.986Z,1.60
2022-09-06T15:12:20.710Z,1.70
2022-09-06T15:14:49.495Z,1.80
2022-09-06T15:17:16.214Z,1.67
2022-09-06T15:19:42.869Z,1.60
2022-09-06T15:22:09.552Z,1.65
2022-09-06T15:24:36.859Z,1.40
2022-09-06T15:27:05.676Z,1.47
2022-09-06T15:29:34.465Z,1.40
2022-09-06T15:32:03.750Z,1.67
2022-09-06T15:34:30.288Z,2.28
2022-09-06T15:36:59.062Z,2.30
2022-09-06T15:39:25.787Z,2.30
2022-09-06T15:41:52.476Z,1.98
2022-09-06T15:44:21.515Z,1.90
2022-09-06T15:46:55.062Z,1.70
2022-09-06T15:49:28.102Z,2.05
2022-09-06T15:52:01.553Z,2.00
2022-09-06T15:54:49.221Z,1.60
2022-09-06T15:57:17.389Z,1.45
2022-09-06T15:59:44.588Z,1.60
2022-09-06T16:02:11.915Z,1.75
2022-09-06T16:04:40.930Z,1.37
2022-09-06T16:07:07.938Z,1.65
2022-09-06T16:09:36.832Z,1.60
2022-09-06T16:12:06.511Z,1.52
2022-09-06T16:14:33.153Z,1.30
2022-09-06T16:17:04.354Z,1.10
2022-09-06T16:19:33.937Z,1.10
2022-09-06T16:22:03.009Z,1.40
2022-09-06T16:24:29.657Z,1.30
2022-09-06T16:26:59.150Z,1.30
2022-09-06T16:29:26.185Z,0.80
2022-09-06T16:31:59.758Z,0.95
2022-09-06T16:34:28.901Z,1.05
2022-09-06T16:36:57.015Z,1.10
2022-09-06T16:39:27.034Z,0.75
2022-09-06T16:41:55.983Z,0.90
2022-09-06T16:44:22.672Z,0.90
2022-09-06T16:46:54.100Z,0.80
2022-09-06T16:49:20.684Z,1.10
2022-09-06T16:51:48.516Z,1.00
2022-09-06T16:54:15.645Z,0.70
2022-09-06T16:56:47.707Z,0.70
2022-09-06T16:59:17.387Z,0.90
2022-09-06T17:01:47.559Z,0.65
2022-09-06T17:04:16.857Z,0.77
2022-09-06T17:06:46.981Z,0.80
2022-09-06T17:09:15.941Z,0.95
2022-09-06T17:11:42.774Z,0.70
2022-09-06T17:14:09.570Z,0.88
2022-09-06T17:16:54.761Z,1.00
2022-09-06T17:19:21.380Z,0.90
2022-09-06T17:21:47.907Z,0.70
2022-09-06T17:24:19.516Z,0.77
2022-09-06T17:26:48.338Z,1.05
2022-09-06T17:29:14.909Z,1.10
2022-09-06T17:31:41.601Z,1.40
2022-09-06T17:34:08.336Z,1.13
2022-09-06T17:36:36.460Z,1.10
2022-09-06T17:39:14.012Z,1.00
2022-09-06T17:41:45.847Z,0.98
2022-09-06T17:44:15.080Z,1.10
2022-09-06T17:47:09.176Z,1.52
2022-09-06T17:49:41.629Z,1.55
2022-09-06T17:52:08.181Z,1.10
2022-09-06T17:54:37.155Z,1.30
2022-09-06T17:57:03.905Z,1.20
2022-09-06T17:59:36.136Z,1.30
2022-09-06T18:02:03.389Z,1.20
2022-09-06T18:04:32.935Z,1.23
2022-09-06T18:06:59.554Z,1.20
2022-09-06T18:09:28.747Z,1.40
2022-09-06T18:11:55.327Z,1.30
2022-09-06T18:14:28.605Z,1.20
2022-09-06T18:16:55.478Z,1.10
2022-09-06T18:19:23.176Z,1.23
2022-09-06T18:21:50.090Z,1.27
2022-09-06T18:24:17.158Z,1.30
2022-09-06T18:26:46.441Z,1.30
2022-09-06T18:29:16.600Z,1.30
2022-09-06T18:31:43.827Z,1.10
2022-09-06T18:34:13.720Z,1.30
2022-09-06T18:36:40.650Z,1.35
2022-09-06T18:39:07.395Z,1.35
2022-09-06T18:41:53.139Z,1.20
2022-09-06T18:44:20.264Z,1.35
2022-09-06T18:46:49.942Z,1.40
2022-09-06T18:49:19.156Z,1.80
2022-09-06T18:51:46.396Z,1.50
2022-09-06T18:54:16.040Z,1.38
2022-09-06T18:56:44.814Z,1.58
2022-09-06T18:59:12.320Z,1.50
2022-09-06T19:01:39.641Z,1.50
2022-09-06T19:04:07.417Z,1.40
2022-09-06T19:06:36.171Z,1.38
2022-09-06T19:09:05.929Z,1.50
2022-09-06T19:11:33.110Z,1.37
2022-09-06T19:13:59.984Z,1.50
2022-09-06T19:16:28.308Z,1.35
2022-09-06T19:18:58.609Z,1.50
2022-09-06T19:21:28.401Z,1.80
2022-09-06T19:24:03.902Z,1.30
2022-09-06T19:26:33.432Z,2.08
2022-09-06T19:29:02.555Z,1.30
2022-09-06T19:31:35.657Z,1.80
2022-09-06T19:34:07.645Z,1.55
2022-09-06T19:36:35.110Z,1.57
2022-09-06T19:39:06.720Z,1.30
2022-09-06T19:41:39.468Z,1.38
2022-09-06T19:44:08.649Z,1.50
2022-09-06T19:46:43.717Z,1.80
2022-09-06T19:49:13.346Z,1.40
2022-09-06T19:51:44.321Z,1.50
2022-09-06T19:54:15.648Z,1.50
2022-09-06T19:56:43.654Z,1.58
2022-09-06T19:59:12.630Z,1.75
2022-09-06T20:01:41.430Z,1.83
2022-09-06T20:04:13.125Z,1.60
2022-09-06T20:06:42.018Z,1.73
2022-09-06T20:09:11.563Z,1.70
2022-09-06T20:11:41.887Z,1.83
2022-09-06T20:14:10.252Z,1.80
2022-09-06T20:16:42.257Z,1.63
2022-09-06T20:19:09.836Z,2.00
2022-09-06T20:21:41.138Z,2.45
2022-09-06T20:24:07.930Z,2.50
2022-09-06T20:26:37.861Z,3.00
2022-09-06T20:29:05.421Z,2.60
2022-09-06T20:31:35.813Z,2.33
2022-09-06T20:34:06.720Z,2.20
2022-09-06T20:36:33.359Z,1.73
2022-09-06T20:39:02.230Z,1.77
2022-09-06T20:41:29.235Z,1.83
2022-09-06T20:43:57.726Z,1.90
2022-09-06T20:46:27.779Z,1.58
2022-09-06T20:48:57.239Z,1.90
2022-09-06T20:51:29.096Z,1.83
2022-09-06T20:53:59.745Z,2.05
2022-09-06T20:56:36.549Z,1.60
2022-09-06T20:59:06.078Z,1.60
2022-09-06T21:01:41.666Z,1.75
2022-09-06T21:04:09.734Z,1.70
2022-09-06T21:06:38.278Z,1.88
2022-09-06T21:09:12.225Z,2.17
2022-09-06T21:11:40.003Z,2.38
2022-09-06T21:14:10.273Z,2.47
2022-09-06T21:16:38.203Z,2.00
2022-09-06T21:19:10.175Z,2.42
2022-09-06T21:21:39.907Z,2.03
2022-09-06T21:24:10.695Z,2.03
2022-09-06T21:26:37.522Z,2.42
2022-09-06T21:29:04.979Z,2.63
2022-09-06T21:31:33.136Z,2.67
2022-09-06T21:34:15.686Z,2.50
2022-09-06T21:36:47.774Z,2.65
2022-09-06T21:39:14.794Z,2.72
2022-09-06T21:41:44.348Z,2.53
2022-09-06T21:44:15.773Z,2.95
2022-09-06T21:46:47.116Z,3.03
2022-09-06T21:49:17.005Z,3.30
2022-09-06T21:51:43.579Z,3.30
2022-09-06T21:54:10.290Z,3.10
2022-09-06T21:56:40.240Z,3.60
2022-09-06T21:59:09.895Z,3.53
2022-09-06T22:01:37.594Z,2.95
2022-09-06T22:04:07.062Z,3.17
2022-09-06T22:06:38.675Z,3.33
2022-09-06T22:09:10.635Z,3.35
2022-09-06T22:11:41.103Z,3.38
2022-09-06T22:14:10.081Z,3.47
2022-09-06T22:16:38.387Z,3.05
2022-09-06T22:19:06.876Z,3.40
2022-09-06T22:21:33.816Z,2.80
2022-09-06T22:24:05.658Z,2.60
2022-09-06T22:26:36.634Z,3.22
2022-09-06T22:29:08.513Z,3.17
2022-09-06T22:31:37.994Z,2.87
2022-09-06T22:34:04.829Z,3.10
2022-09-06T22:36:38.737Z,4.30
2022-09-06T22:39:05.779Z,3.83
2022-09-06T22:41:35.498Z,3.95
2022-09-06T22:44:05.117Z,3.97
2022-09-06T22:46:32.196Z,4.03
2022-09-06T22:48:59.731Z,4.20
2022-09-06T22:51:26.392Z,4.00
2022-09-06T22:53:55.486Z,3.90
2022-09-06T22:56:22.032Z,3.80
2022-09-06T22:58:48.598Z,3.30
2022-09-06T23:01:16.701Z,4.10
2022-09-06T23:03:46.510Z,3.67
2022-09-06T23:06:15.317Z,3.30
2022-09-06T23:08:44.089Z,3.10
2022-09-06T23:11:18.601Z,3.10
2022-09-06T23:13:47.536Z,4.05
2022-09-06T23:16:21.830Z,3.25
2022-09-06T23:18:48.558Z,3.42
2022-09-06T23:21:21.619Z,3.97
2022-09-06T23:23:50.498Z,3.88
2022-09-06T23:26:22.377Z,3.53
2022-09-06T23:28:56.593Z,3.90
2022-09-06T23:31:28.421Z,4.10
2022-09-06T23:33:57.272Z,3.73
2022-09-06T23:36:26.706Z,4.00
2022-09-06T23:38:53.450Z,4.30
2022-09-06T23:41:22.724Z,4.22
2022-09-06T23:43:49.523Z,4.45
2022-09-06T23:46:16.391Z,4.47
2022-09-06T23:48:43.660Z,4.90
2022-09-06T23:51:10.890Z,5.10
2022-09-06T23:53:43.124Z,4.80
2022-09-06T23:56:12.301Z,4.05
2022-09-06T23:58:41.589Z,4.33
